sensor_id;sensor_type;location;lat;lon;timestamp;temperature;humidity
59847;DHT22;45728;48.788;2.302;2023-03-12T00:00:50;9.20;99.90
59847;DHT22;45728;48.788;2.302;2023-03-12T00:03:16;9.20;99.90
59847;DHT22;45728;48.788;2.302;2023-03-12T00:05:43;9.10;99.90
59847;DHT22;45728;48.788;2.302;2023-03-12T00:08:10;9.00;99.90
59847;DHT22;45728;48.788;2.302;2023-03-12T00:10:40;9.10;99.90
59847;DHT22;45728;48.788;2.302;2023-03-12T00:13:07;9.10;99.90
59847;DHT22;45728;48.788;2.302;2023-03-12T00:15:37;9.10;99.90
59847;DHT22;45728;48.788;2.302;2023-03-12T00:18:04;9.10;99.90
59847;DHT22;45728;48.788;2.302;2023-03-12T00:20:31;9.10;99.90
59847;DHT22;45728;48.788;2.302;2023-03-12T00:22:57;9.20;99.90
59847;DHT22;45728;48.788;2.302;2023-03-12T00:25:23;9.20;99.90
59847;DHT22;45728;48.788;2.302;2023-03-12T00:27:49;9.20;99.90
59847;DHT22;45728;48.788;2.302;2023-03-12T00:30:15;9.10;99.90
59847;DHT22;45728;48.788;2.302;2023-03-12T00:32:41;9.20;99.90
59847;DHT22;45728;48.788;2.302;2023-03-12T00:35:07;9.20;99.90
59847;DHT22;45728;48.788;2.302;2023-03-12T00:37:35;9.30;99.90
59847;DHT22;45728;48.788;2.302;2023-03-12T00:40:02;9.20;99.90
59847;DHT22;45728;48.788;2.302;2023-03-12T00:42:31;9.30;99.90
59847;DHT22;45728;48.788;2.302;2023-03-12T00:44:57;9.30;99.90
59847;DHT22;45728;48.788;2.302;2023-03-12T00:47:23;9.30;99.90
59847;DHT22;45728;48.788;2.302;2023-03-12T00:49:49;9.30;99.90
59847;DHT22;45728;48.788;2.302;2023-03-12T00:52:15;9.30;99.90
59847;DHT22;45728;48.788;2.302;2023-03-12T00:54:41;9.30;99.90
59847;DHT22;45728;48.788;2.302;2023-03-12T00:57:07;9.30;99.90
59847;DHT22;45728;48.788;2.302;2023-03-12T00:59:33;9.30;99.90
59847;DHT22;45728;48.788;2.302;2023-03-12T01:01:59;9.30;99.90
59847;DHT22;45728;48.788;2.302;2023-03-12T01:04:25;9.30;99.90
59847;DHT22;45728;48.788;2.302;2023-03-12T01:06:51;9.30;99.90
59847;DHT22;45728;48.788;2.302;2023-03-12T01:09:17;9.30;99.90
59847;DHT22;45728;48.788;2.302;2023-03-12T01:11:43;9.30;99.90
59847;DHT22;45728;48.788;2.302;2023-03-12T01:14:09;9.40;99.90
59847;DHT22;45728;48.788;2.302;2023-03-12T01:16:36;9.40;99.90
59847;DHT22;45728;48.788;2.302;2023-03-12T01:19:03;9.40;99.90
59847;DHT22;45728;48.788;2.302;2023-03-12T01:21:29;9.40;99.90
59847;DHT22;45728;48.788;2.302;2023-03-12T01:23:57;9.50;99.90
59847;DHT22;45728;48.788;2.302;2023-03-12T01:26:23;9.40;99.90
59847;DHT22;45728;48.788;2.302;2023-03-12T01:28:49;9.50;99.90
59847;DHT22;45728;48.788;2.302;2023-03-12T01:31:17;9.50;99.90
59847;DHT22;45728;48.788;2.302;2023-03-12T01:33:51;9.40;99.90
59847;DHT22;45728;48.788;2.302;2023-03-12T01:36:25;9.30;99.90
59847;DHT22;45728;48.788;2.302;2023-03-12T01:38:57;9.30;99.90
59847;DHT22;45728;48.788;2.302;2023-03-12T01:41:25;9.30;99.90
59847;DHT22;45728;48.788;2.302;2023-03-12T01:43:51;9.30;99.90
59847;DHT22;45728;48.788;2.302;2023-03-12T01:46:27;9.30;99.90
59847;DHT22;45728;48.788;2.302;2023-03-12T01:51:54;9.40;99.90
59847;DHT22;45728;48.788;2.302;2023-03-12T01:57:30;9.60;99.90
59847;DHT22;45728;48.788;2.302;2023-03-12T02:00:00;9.50;99.90
59847;DHT22;45728;48.788;2.302;2023-03-12T02:02:27;9.60;99.90
59847;DHT22;45728;48.788;2.302;2023-03-12T02:05:08;9.50;99.90
59847;DHT22;45728;48.788;2.302;2023-03-12T02:07:36;9.50;99.90
59847;DHT22;45728;48.788;2.302;2023-03-12T02:10:03;9.40;99.90
59847;DHT22;45728;48.788;2.302;2023-03-12T02:12:30;9.40;99.90
59847;DHT22;45728;48.788;2.302;2023-03-12T02:14:56;9.50;99.90
59847;DHT22;45728;48.788;2.302;2023-03-12T02:17:23;9.50;99.90
59847;DHT22;45728;48.788;2.302;2023-03-12T02:22:27;9.70;99.90
59847;DHT22;45728;48.788;2.302;2023-03-12T02:25:19;9.70;99.90
59847;DHT22;45728;48.788;2.302;2023-03-12T02:27:46;9.70;99.90
59847;DHT22;45728;48.788;2.302;2023-03-12T02:30:13;9.80;99.90
59847;DHT22;45728;48.788;2.302;2023-03-12T02:32:42;9.80;99.90
59847;DHT22;45728;48.788;2.302;2023-03-12T02:35:09;9.70;99.90
59847;DHT22;45728;48.788;2.302;2023-03-12T02:37:35;9.70;99.90
59847;DHT22;45728;48.788;2.302;2023-03-12T02:40:12;9.70;99.90
59847;DHT22;45728;48.788;2.302;2023-03-12T02:42:40;9.70;99.90
59847;DHT22;45728;48.788;2.302;2023-03-12T02:45:06;9.80;99.90
59847;DHT22;45728;48.788;2.302;2023-03-12T02:47:32;9.80;99.90
59847;DHT22;45728;48.788;2.302;2023-03-12T02:49:58;9.80;99.90
59847;DHT22;45728;48.788;2.302;2023-03-12T02:52:24;9.80;99.90
59847;DHT22;45728;48.788;2.302;2023-03-12T02:54:50;9.70;99.90
59847;DHT22;45728;48.788;2.302;2023-03-12T02:57:17;9.80;99.90
59847;DHT22;45728;48.788;2.302;2023-03-12T02:59:43;9.70;99.90
59847;DHT22;45728;48.788;2.302;2023-03-12T03:02:09;9.80;99.90
59847;DHT22;45728;48.788;2.302;2023-03-12T03:04:37;9.80;99.90
59847;DHT22;45728;48.788;2.302;2023-03-12T03:07:03;9.80;99.90
59847;DHT22;45728;48.788;2.302;2023-03-12T03:09:29;9.90;99.90
59847;DHT22;45728;48.788;2.302;2023-03-12T03:11:55;9.80;99.90
59847;DHT22;45728;48.788;2.302;2023-03-12T03:14:21;9.80;99.90
59847;DHT22;45728;48.788;2.302;2023-03-12T03:16:48;9.80;99.90
59847;DHT22;45728;48.788;2.302;2023-03-12T03:19:14;9.80;99.90
59847;DHT22;45728;48.788;2.302;2023-03-12T03:21:40;9.80;99.90
59847;DHT22;45728;48.788;2.302;2023-03-12T03:24:06;9.90;99.90
59847;DHT22;45728;48.788;2.302;2023-03-12T03:26:32;9.90;99.90
59847;DHT22;45728;48.788;2.302;2023-03-12T03:28:58;9.90;99.90
59847;DHT22;45728;48.788;2.302;2023-03-12T03:31:24;9.80;99.90
59847;DHT22;45728;48.788;2.302;2023-03-12T03:33:51;9.80;99.90
59847;DHT22;45728;48.788;2.302;2023-03-12T03:36:17;9.80;99.90
59847;DHT22;45728;48.788;2.302;2023-03-12T03:38:44;9.70;99.90
59847;DHT22;45728;48.788;2.302;2023-03-12T03:41:16;9.70;99.90
59847;DHT22;45728;48.788;2.302;2023-03-12T03:43:42;9.70;99.90
59847;DHT22;45728;48.788;2.302;2023-03-12T03:46:10;9.60;99.90
59847;DHT22;45728;48.788;2.302;2023-03-12T03:48:36;9.60;99.90
59847;DHT22;45728;48.788;2.302;2023-03-12T03:51:04;9.70;99.90
59847;DHT22;45728;48.788;2.302;2023-03-12T03:53:31;9.60;99.90
59847;DHT22;45728;48.788;2.302;2023-03-12T03:55:57;9.60;99.90
59847;DHT22;45728;48.788;2.302;2023-03-12T03:58:23;9.60;99.90
59847;DHT22;45728;48.788;2.302;2023-03-12T04:00:49;9.50;99.90
59847;DHT22;45728;48.788;2.302;2023-03-12T04:03:15;9.50;99.90
59847;DHT22;45728;48.788;2.302;2023-03-12T04:05:41;9.50;99.90
59847;DHT22;45728;48.788;2.302;2023-03-12T04:08:11;9.40;99.90
59847;DHT22;45728;48.788;2.302;2023-03-12T04:10:37;9.50;99.90
59847;DHT22;45728;48.788;2.302;2023-03-12T04:13:03;9.40;99.90
59847;DHT22;45728;48.788;2.302;2023-03-12T04:15:29;9.40;99.90
59847;DHT22;45728;48.788;2.302;2023-03-12T04:17:55;9.40;99.90
59847;DHT22;45728;48.788;2.302;2023-03-12T04:20:21;9.40;99.90
59847;DHT22;45728;48.788;2.302;2023-03-12T04:22:47;9.30;99.90
59847;DHT22;45728;48.788;2.302;2023-03-12T04:25:13;9.40;99.90
59847;DHT22;45728;48.788;2.302;2023-03-12T04:27:40;9.40;99.90
59847;DHT22;45728;48.788;2.302;2023-03-12T04:30:06;9.40;99.90
59847;DHT22;45728;48.788;2.302;2023-03-12T04:32:32;9.30;99.90
59847;DHT22;45728;48.788;2.302;2023-03-12T04:34:58;9.30;99.90
59847;DHT22;45728;48.788;2.302;2023-03-12T04:37:24;9.30;99.90
59847;DHT22;45728;48.788;2.302;2023-03-12T04:39:50;9.30;99.90
59847;DHT22;45728;48.788;2.302;2023-03-12T04:42:17;9.40;99.90
59847;DHT22;45728;48.788;2.302;2023-03-12T04:44:43;9.30;99.90
59847;DHT22;45728;48.788;2.302;2023-03-12T04:47:09;9.20;99.90
59847;DHT22;45728;48.788;2.302;2023-03-12T04:49:37;9.20;99.90
59847;DHT22;45728;48.788;2.302;2023-03-12T04:52:04;9.10;99.90
59847;DHT22;45728;48.788;2.302;2023-03-12T04:54:30;9.10;99.90
59847;DHT22;45728;48.788;2.302;2023-03-12T04:56:56;9.20;99.90
59847;DHT22;45728;48.788;2.302;2023-03-12T04:59:22;9.30;99.90
59847;DHT22;45728;48.788;2.302;2023-03-12T05:01:48;9.30;99.90
59847;DHT22;45728;48.788;2.302;2023-03-12T05:04:16;9.30;99.90
59847;DHT22;45728;48.788;2.302;2023-03-12T05:06:42;9.30;99.90
59847;DHT22;45728;48.788;2.302;2023-03-12T05:09:08;9.20;99.90
59847;DHT22;45728;48.788;2.302;2023-03-12T05:11:34;9.20;99.90
59847;DHT22;45728;48.788;2.302;2023-03-12T05:14:00;9.20;99.90
59847;DHT22;45728;48.788;2.302;2023-03-12T05:16:26;9.20;99.90
59847;DHT22;45728;48.788;2.302;2023-03-12T05:18:52;9.20;99.90
59847;DHT22;45728;48.788;2.302;2023-03-12T05:21:20;9.30;99.90
59847;DHT22;45728;48.788;2.302;2023-03-12T05:23:46;9.30;99.90
59847;DHT22;45728;48.788;2.302;2023-03-12T05:28:45;9.40;99.90
59847;DHT22;45728;48.788;2.302;2023-03-12T05:31:13;9.40;99.90
59847;DHT22;45728;48.788;2.302;2023-03-12T05:33:39;9.40;99.90
59847;DHT22;45728;48.788;2.302;2023-03-12T05:36:06;9.40;99.90
59847;DHT22;45728;48.788;2.302;2023-03-12T05:38:32;9.40;99.90
59847;DHT22;45728;48.788;2.302;2023-03-12T05:40:58;9.50;99.90
59847;DHT22;45728;48.788;2.302;2023-03-12T05:43:26;9.50;99.90
59847;DHT22;45728;48.788;2.302;2023-03-12T05:45:52;9.50;99.90
59847;DHT22;45728;48.788;2.302;2023-03-12T05:48:18;9.50;99.90
59847;DHT22;45728;48.788;2.302;2023-03-12T05:50:44;9.60;99.90
59847;DHT22;45728;48.788;2.302;2023-03-12T05:53:11;9.60;99.90
59847;DHT22;45728;48.788;2.302;2023-03-12T05:55:38;9.60;99.90
59847;DHT22;45728;48.788;2.302;2023-03-12T05:58:05;9.60;99.90
59847;DHT22;45728;48.788;2.302;2023-03-12T06:00:32;9.60;99.90
59847;DHT22;45728;48.788;2.302;2023-03-12T06:03:04;9.60;99.90
59847;DHT22;45728;48.788;2.302;2023-03-12T06:05:31;9.60;99.90
59847;DHT22;45728;48.788;2.302;2023-03-12T06:07:58;9.60;99.90
59847;DHT22;45728;48.788;2.302;2023-03-12T06:10:24;9.70;99.90
59847;DHT22;45728;48.788;2.302;2023-03-12T06:12:50;9.60;99.90
59847;DHT22;45728;48.788;2.302;2023-03-12T06:15:17;9.70;99.90
59847;DHT22;45728;48.788;2.302;2023-03-12T06:17:43;9.70;99.90
59847;DHT22;45728;48.788;2.302;2023-03-12T06:20:09;9.70;99.90
59847;DHT22;45728;48.788;2.302;2023-03-12T06:22:36;9.70;99.90
59847;DHT22;45728;48.788;2.302;2023-03-12T06:25:02;9.70;99.90
59847;DHT22;45728;48.788;2.302;2023-03-12T06:27:28;9.70;99.90
59847;DHT22;45728;48.788;2.302;2023-03-12T06:29:54;9.70;99.90
59847;DHT22;45728;48.788;2.302;2023-03-12T06:32:21;9.70;99.90
59847;DHT22;45728;48.788;2.302;2023-03-12T06:34:47;9.70;99.90
59847;DHT22;45728;48.788;2.302;2023-03-12T06:37:14;9.80;99.90
59847;DHT22;45728;48.788;2.302;2023-03-12T06:39:40;9.80;99.90
59847;DHT22;45728;48.788;2.302;2023-03-12T06:42:06;9.80;99.90
59847;DHT22;45728;48.788;2.302;2023-03-12T06:44:32;9.80;99.90
59847;DHT22;45728;48.788;2.302;2023-03-12T06:46:58;9.80;99.90
59847;DHT22;45728;48.788;2.302;2023-03-12T06:49:25;9.80;99.90
59847;DHT22;45728;48.788;2.302;2023-03-12T06:51:52;9.80;99.90
59847;DHT22;45728;48.788;2.302;2023-03-12T06:54:18;9.80;99.90
59847;DHT22;45728;48.788;2.302;2023-03-12T06:56:44;9.90;99.90
59847;DHT22;45728;48.788;2.302;2023-03-12T06:59:10;9.90;99.90
59847;DHT22;45728;48.788;2.302;2023-03-12T07:01:36;9.90;99.90
59847;DHT22;45728;48.788;2.302;2023-03-12T07:04:03;9.90;99.90
59847;DHT22;45728;48.788;2.302;2023-03-12T07:06:29;9.90;99.90
59847;DHT22;45728;48.788;2.302;2023-03-12T07:08:55;9.90;99.90
59847;DHT22;45728;48.788;2.302;2023-03-12T07:11:21;9.90;99.90
59847;DHT22;45728;48.788;2.302;2023-03-12T07:13:47;9.90;99.90
59847;DHT22;45728;48.788;2.302;2023-03-12T07:16:13;9.90;99.90
59847;DHT22;45728;48.788;2.302;2023-03-12T07:18:39;9.90;99.90
59847;DHT22;45728;48.788;2.302;2023-03-12T07:21:05;9.90;99.90
59847;DHT22;45728;48.788;2.302;2023-03-12T07:23:31;9.90;99.90
59847;DHT22;45728;48.788;2.302;2023-03-12T07:25:57;9.90;99.90
59847;DHT22;45728;48.788;2.302;2023-03-12T07:28:23;9.90;99.90
59847;DHT22;45728;48.788;2.302;2023-03-12T07:30:49;9.90;99.90
59847;DHT22;45728;48.788;2.302;2023-03-12T07:33:20;9.90;99.90
59847;DHT22;45728;48.788;2.302;2023-03-12T07:35:47;9.90;99.90
59847;DHT22;45728;48.788;2.302;2023-03-12T07:38:13;10.00;99.90
59847;DHT22;45728;48.788;2.302;2023-03-12T07:40:39;10.00;99.90
59847;DHT22;45728;48.788;2.302;2023-03-12T07:43:05;10.10;99.90
59847;DHT22;45728;48.788;2.302;2023-03-12T07:45:39;10.10;99.90
59847;DHT22;45728;48.788;2.302;2023-03-12T07:48:06;10.20;99.90
59847;DHT22;45728;48.788;2.302;2023-03-12T07:50:33;10.20;99.90
59847;DHT22;45728;48.788;2.302;2023-03-12T07:52:59;10.30;99.90
59847;DHT22;45728;48.788;2.302;2023-03-12T07:55:25;10.40;99.90
59847;DHT22;45728;48.788;2.302;2023-03-12T07:57:51;10.40;99.90
59847;DHT22;45728;48.788;2.302;2023-03-12T08:00:18;10.50;99.90
59847;DHT22;45728;48.788;2.302;2023-03-12T08:02:45;10.60;99.90
59847;DHT22;45728;48.788;2.302;2023-03-12T08:05:11;10.60;99.90
59847;DHT22;45728;48.788;2.302;2023-03-12T08:07:37;10.60;99.90
59847;DHT22;45728;48.788;2.302;2023-03-12T08:10:06;10.70;99.90
59847;DHT22;45728;48.788;2.302;2023-03-12T08:12:32;10.70;99.90
59847;DHT22;45728;48.788;2.302;2023-03-12T08:14:58;10.80;99.90
59847;DHT22;45728;48.788;2.302;2023-03-12T08:17:24;10.80;99.90
59847;DHT22;45728;48.788;2.302;2023-03-12T08:19:51;10.90;99.90
59847;DHT22;45728;48.788;2.302;2023-03-12T08:22:17;10.90;99.90
59847;DHT22;45728;48.788;2.302;2023-03-12T08:24:43;11.00;99.90
59847;DHT22;45728;48.788;2.302;2023-03-12T08:27:09;11.10;99.90
59847;DHT22;45728;48.788;2.302;2023-03-12T08:29:38;11.10;99.90
59847;DHT22;45728;48.788;2.302;2023-03-12T08:32:04;11.10;99.90
59847;DHT22;45728;48.788;2.302;2023-03-12T08:34:31;11.20;99.90
59847;DHT22;45728;48.788;2.302;2023-03-12T08:36:58;11.30;99.90
59847;DHT22;45728;48.788;2.302;2023-03-12T08:39:24;11.30;99.90
59847;DHT22;45728;48.788;2.302;2023-03-12T08:41:51;11.30;99.90
59847;DHT22;45728;48.788;2.302;2023-03-12T08:44:21;11.40;99.90
59847;DHT22;45728;48.788;2.302;2023-03-12T08:46:47;11.40;99.90
59847;DHT22;45728;48.788;2.302;2023-03-12T08:49:13;11.50;99.90
59847;DHT22;45728;48.788;2.302;2023-03-12T08:51:39;11.50;99.90
59847;DHT22;45728;48.788;2.302;2023-03-12T08:54:05;11.60;99.90
59847;DHT22;45728;48.788;2.302;2023-03-12T08:56:32;11.70;99.90
59847;DHT22;45728;48.788;2.302;2023-03-12T08:58:58;11.70;99.90
59847;DHT22;45728;48.788;2.302;2023-03-12T09:01:24;11.80;99.90
59847;DHT22;45728;48.788;2.302;2023-03-12T09:03:50;11.90;99.90
59847;DHT22;45728;48.788;2.302;2023-03-12T09:06:18;12.10;99.90
59847;DHT22;45728;48.788;2.302;2023-03-12T09:08:45;12.10;99.90
59847;DHT22;45728;48.788;2.302;2023-03-12T09:11:13;12.10;99.90
59847;DHT22;45728;48.788;2.302;2023-03-12T09:13:40;12.10;99.90
59847;DHT22;45728;48.788;2.302;2023-03-12T09:16:07;12.10;99.90
59847;DHT22;45728;48.788;2.302;2023-03-12T09:18:34;12.10;99.90
59847;DHT22;45728;48.788;2.302;2023-03-12T09:21:00;12.00;99.90
59847;DHT22;45728;48.788;2.302;2023-03-12T09:23:27;12.00;99.90
59847;DHT22;45728;48.788;2.302;2023-03-12T09:25:54;12.00;99.90
59847;DHT22;45728;48.788;2.302;2023-03-12T09:28:20;12.00;99.90
59847;DHT22;45728;48.788;2.302;2023-03-12T09:30:46;12.00;99.90
59847;DHT22;45728;48.788;2.302;2023-03-12T09:33:13;12.10;99.90
59847;DHT22;45728;48.788;2.302;2023-03-12T09:35:43;12.30;99.90
59847;DHT22;45728;48.788;2.302;2023-03-12T09:38:15;12.40;99.90
59847;DHT22;45728;48.788;2.302;2023-03-12T09:40:45;12.50;99.90
59847;DHT22;45728;48.788;2.302;2023-03-12T09:43:40;12.30;99.90
59847;DHT22;45728;48.788;2.302;2023-03-12T09:46:17;12.40;99.90
59847;DHT22;45728;48.788;2.302;2023-03-12T09:48:45;12.50;99.90
59847;DHT22;45728;48.788;2.302;2023-03-12T09:51:16;12.40;99.90
59847;DHT22;45728;48.788;2.302;2023-03-12T09:53:52;12.40;99.90
59847;DHT22;45728;48.788;2.302;2023-03-12T09:56:20;12.40;99.90
59847;DHT22;45728;48.788;2.302;2023-03-12T09:58:47;12.30;99.90
59847;DHT22;45728;48.788;2.302;2023-03-12T10:01:43;12.30;99.90
59847;DHT22;45728;48.788;2.302;2023-03-12T10:20:58;13.50;99.90
59847;DHT22;45728;48.788;2.302;2023-03-12T10:23:40;13.90;99.90
59847;DHT22;45728;48.788;2.302;2023-03-12T10:26:09;13.80;99.90
59847;DHT22;45728;48.788;2.302;2023-03-12T10:31:21;13.20;99.90
59847;DHT22;45728;48.788;2.302;2023-03-12T10:33:58;13.10;99.90
59847;DHT22;45728;48.788;2.302;2023-03-12T10:36:33;13.10;99.90
59847;DHT22;45728;48.788;2.302;2023-03-12T10:39:02;13.00;99.90
59847;DHT22;45728;48.788;2.302;2023-03-12T10:41:30;13.00;99.90
59847;DHT22;45728;48.788;2.302;2023-03-12T10:44:01;12.90;99.90
59847;DHT22;45728;48.788;2.302;2023-03-12T10:52:09;12.90;99.90
59847;DHT22;45728;48.788;2.302;2023-03-12T10:54:40;12.90;99.90
59847;DHT22;45728;48.788;2.302;2023-03-12T10:57:08;12.90;99.90
59847;DHT22;45728;48.788;2.302;2023-03-12T10:59:39;12.90;99.90
59847;DHT22;45728;48.788;2.302;2023-03-12T11:02:34;12.90;99.90
59847;DHT22;45728;48.788;2.302;2023-03-12T11:05:19;12.90;99.90
59847;DHT22;45728;48.788;2.302;2023-03-12T11:07:46;12.90;99.90
59847;DHT22;45728;48.788;2.302;2023-03-12T11:10:36;13.00;99.90
59847;DHT22;45728;48.788;2.302;2023-03-12T11:13:05;12.90;99.90
59847;DHT22;45728;48.788;2.302;2023-03-12T11:15:45;12.90;99.90
59847;DHT22;45728;48.788;2.302;2023-03-12T11:20:44;13.00;99.90
59847;DHT22;45728;48.788;2.302;2023-03-12T11:23:21;13.00;99.90
59847;DHT22;45728;48.788;2.302;2023-03-12T11:26:00;13.00;99.90
59847;DHT22;45728;48.788;2.302;2023-03-12T11:28:51;13.10;99.90
59847;DHT22;45728;48.788;2.302;2023-03-12T11:33:51;13.10;99.90
59847;DHT22;45728;48.788;2.302;2023-03-12T11:50:35;13.30;99.90
59847;DHT22;45728;48.788;2.302;2023-03-12T12:09:47;13.50;99.90
59847;DHT22;45728;48.788;2.302;2023-03-12T12:15:25;13.50;99.90
59847;DHT22;45728;48.788;2.302;2023-03-12T12:20:37;13.60;99.90
59847;DHT22;45728;48.788;2.302;2023-03-12T12:36:09;14.10;99.90
59847;DHT22;45728;48.788;2.302;2023-03-12T12:38:40;14.10;99.90
59847;DHT22;45728;48.788;2.302;2023-03-12T12:41:12;14.40;99.90
59847;DHT22;45728;48.788;2.302;2023-03-12T12:43:47;14.50;99.90
59847;DHT22;45728;48.788;2.302;2023-03-12T12:46:27;14.50;99.90
59847;DHT22;45728;48.788;2.302;2023-03-12T12:48:55;14.50;99.90
59847;DHT22;45728;48.788;2.302;2023-03-12T12:51:26;14.80;99.90
59847;DHT22;45728;48.788;2.302;2023-03-12T12:54:20;14.90;99.90
59847;DHT22;45728;48.788;2.302;2023-03-12T12:56:53;15.10;99.90
59847;DHT22;45728;48.788;2.302;2023-03-12T13:02:20;15.50;99.90
59847;DHT22;45728;48.788;2.302;2023-03-12T13:04:48;15.50;99.90
59847;DHT22;45728;48.788;2.302;2023-03-12T13:09:45;15.20;99.90
59847;DHT22;45728;48.788;2.302;2023-03-12T13:12:24;15.10;99.90
59847;DHT22;45728;48.788;2.302;2023-03-12T13:14:53;15.40;99.90
59847;DHT22;45728;48.788;2.302;2023-03-12T13:17:23;15.20;99.90
59847;DHT22;45728;48.788;2.302;2023-03-12T13:20:00;15.10;99.90
59847;DHT22;45728;48.788;2.302;2023-03-12T13:30:48;14.90;99.90
59847;DHT22;45728;48.788;2.302;2023-03-12T13:33:17;15.00;99.90
59847;DHT22;45728;48.788;2.302;2023-03-12T13:49:45;14.70;99.90
59847;DHT22;45728;48.788;2.302;2023-03-12T13:52:27;14.60;99.90
59847;DHT22;45728;48.788;2.302;2023-03-12T13:57:44;14.70;99.90
59847;DHT22;45728;48.788;2.302;2023-03-12T14:03:00;14.50;99.90
59847;DHT22;45728;48.788;2.302;2023-03-12T14:05:28;14.50;99.90
59847;DHT22;45728;48.788;2.302;2023-03-12T14:10:59;14.40;99.90
59847;DHT22;45728;48.788;2.302;2023-03-12T14:18:44;14.30;99.90
59847;DHT22;45728;48.788;2.302;2023-03-12T14:21:15;14.30;99.90
59847;DHT22;45728;48.788;2.302;2023-03-12T14:23:55;14.60;99.90
59847;DHT22;45728;48.788;2.302;2023-03-12T14:26:31;14.70;99.90
59847;DHT22;45728;48.788;2.302;2023-03-12T14:29:13;14.60;99.90
59847;DHT22;45728;48.788;2.302;2023-03-12T14:31:43;14.80;99.90
59847;DHT22;45728;48.788;2.302;2023-03-12T14:34:18;14.70;99.90
59847;DHT22;45728;48.788;2.302;2023-03-12T14:39:29;14.40;99.90
59847;DHT22;45728;48.788;2.302;2023-03-12T14:42:02;14.40;99.90
59847;DHT22;45728;48.788;2.302;2023-03-12T14:44:35;14.30;99.90
59847;DHT22;45728;48.788;2.302;2023-03-12T14:47:07;14.30;99.90
59847;DHT22;45728;48.788;2.302;2023-03-12T14:49:43;14.30;99.90
59847;DHT22;45728;48.788;2.302;2023-03-12T14:52:14;14.50;99.90
59847;DHT22;45728;48.788;2.302;2023-03-12T14:54:59;14.50;99.90
59847;DHT22;45728;48.788;2.302;2023-03-12T14:57:26;14.40;99.90
59847;DHT22;45728;48.788;2.302;2023-03-12T14:59:57;14.30;99.90
59847;DHT22;45728;48.788;2.302;2023-03-12T15:02:24;14.10;99.90
59847;DHT22;45728;48.788;2.302;2023-03-12T15:04:56;14.20;99.90
59847;DHT22;45728;48.788;2.302;2023-03-12T15:07:32;14.20;99.90
59847;DHT22;45728;48.788;2.302;2023-03-12T15:10:02;14.20;99.90
59847;DHT22;45728;48.788;2.302;2023-03-12T15:12:36;14.10;99.90
59847;DHT22;45728;48.788;2.302;2023-03-12T15:15:08;14.20;99.90
59847;DHT22;45728;48.788;2.302;2023-03-12T15:17:35;14.30;99.90
59847;DHT22;45728;48.788;2.302;2023-03-12T15:20:05;14.40;99.90
59847;DHT22;45728;48.788;2.302;2023-03-12T15:22:34;14.40;99.90
59847;DHT22;45728;48.788;2.302;2023-03-12T15:25:20;14.40;99.90
59847;DHT22;45728;48.788;2.302;2023-03-12T15:27:47;14.30;99.90
59847;DHT22;45728;48.788;2.302;2023-03-12T15:30:24;14.10;99.90
59847;DHT22;45728;48.788;2.302;2023-03-12T15:35:29;14.20;99.90
59847;DHT22;45728;48.788;2.302;2023-03-12T15:37:55;14.20;99.90
59847;DHT22;45728;48.788;2.302;2023-03-12T15:40:26;14.30;99.90
59847;DHT22;45728;48.788;2.302;2023-03-12T15:42:54;14.30;99.90
59847;DHT22;45728;48.788;2.302;2023-03-12T15:45:34;14.40;99.90
59847;DHT22;45728;48.788;2.302;2023-03-12T15:48:01;14.50;99.90
59847;DHT22;45728;48.788;2.302;2023-03-12T15:50:31;14.50;99.90
59847;DHT22;45728;48.788;2.302;2023-03-12T15:53:22;14.40;99.90
59847;DHT22;45728;48.788;2.302;2023-03-12T15:56:06;14.10;99.90
59847;DHT22;45728;48.788;2.302;2023-03-12T15:58:45;14.10;99.90
59847;DHT22;45728;48.788;2.302;2023-03-12T16:01:12;14.20;99.90
59847;DHT22;45728;48.788;2.302;2023-03-12T16:03:43;14.00;99.90
59847;DHT22;45728;48.788;2.302;2023-03-12T16:06:12;13.90;99.90
59847;DHT22;45728;48.788;2.302;2023-03-12T16:08:52;13.80;99.90
59847;DHT22;45728;48.788;2.302;2023-03-12T16:11:23;13.90;99.90
59847;DHT22;45728;48.788;2.302;2023-03-12T16:13:51;13.90;99.90
59847;DHT22;45728;48.788;2.302;2023-03-12T16:16:18;13.80;99.90
59847;DHT22;45728;48.788;2.302;2023-03-12T16:18:45;13.80;99.90
59847;DHT22;45728;48.788;2.302;2023-03-12T16:21:12;13.80;99.90
59847;DHT22;45728;48.788;2.302;2023-03-12T16:23:38;13.80;99.90
59847;DHT22;45728;48.788;2.302;2023-03-12T16:26:05;13.90;99.90
59847;DHT22;45728;48.788;2.302;2023-03-12T16:28:34;13.90;99.90
59847;DHT22;45728;48.788;2.302;2023-03-12T16:31:01;13.70;99.90
59847;DHT22;45728;48.788;2.302;2023-03-12T16:33:27;13.80;99.90
59847;DHT22;45728;48.788;2.302;2023-03-12T16:35:53;13.80;99.90
59847;DHT22;45728;48.788;2.302;2023-03-12T16:38:19;13.80;99.90
59847;DHT22;45728;48.788;2.302;2023-03-12T16:40:47;13.80;99.90
59847;DHT22;45728;48.788;2.302;2023-03-12T16:43:22;13.80;99.90
59847;DHT22;45728;48.788;2.302;2023-03-12T16:45:50;13.80;99.90
59847;DHT22;45728;48.788;2.302;2023-03-12T16:48:19;13.80;99.90
59847;DHT22;45728;48.788;2.302;2023-03-12T16:50:54;13.80;99.90
59847;DHT22;45728;48.788;2.302;2023-03-12T16:53:20;13.80;99.90
59847;DHT22;45728;48.788;2.302;2023-03-12T16:55:53;13.70;99.90
59847;DHT22;45728;48.788;2.302;2023-03-12T16:58:21;13.70;99.90
59847;DHT22;45728;48.788;2.302;2023-03-12T17:00:49;13.70;99.90
59847;DHT22;45728;48.788;2.302;2023-03-12T17:05:53;13.70;99.90
59847;DHT22;45728;48.788;2.302;2023-03-12T17:08:19;13.70;99.90
59847;DHT22;45728;48.788;2.302;2023-03-12T17:10:45;13.70;99.90
59847;DHT22;45728;48.788;2.302;2023-03-12T17:13:18;13.70;99.90
59847;DHT22;45728;48.788;2.302;2023-03-12T17:15:45;13.70;99.90
59847;DHT22;45728;48.788;2.302;2023-03-12T17:18:12;13.70;99.90
59847;DHT22;45728;48.788;2.302;2023-03-12T17:20:38;13.60;99.90
59847;DHT22;45728;48.788;2.302;2023-03-12T17:23:05;13.70;99.90
59847;DHT22;45728;48.788;2.302;2023-03-12T17:25:34;13.70;99.90
59847;DHT22;45728;48.788;2.302;2023-03-12T17:28:00;13.60;99.90
59847;DHT22;45728;48.788;2.302;2023-03-12T17:30:28;13.70;99.90
59847;DHT22;45728;48.788;2.302;2023-03-12T17:33:04;13.60;99.90
59847;DHT22;45728;48.788;2.302;2023-03-12T17:35:30;13.60;99.90
59847;DHT22;45728;48.788;2.302;2023-03-12T17:37:57;13.50;99.90
59847;DHT22;45728;48.788;2.302;2023-03-12T17:40:23;13.50;99.90
59847;DHT22;45728;48.788;2.302;2023-03-12T17:42:49;13.50;99.90
59847;DHT22;45728;48.788;2.302;2023-03-12T17:45:16;13.50;99.90
59847;DHT22;45728;48.788;2.302;2023-03-12T17:47:42;13.50;99.90
59847;DHT22;45728;48.788;2.302;2023-03-12T17:50:09;13.40;99.90
59847;DHT22;45728;48.788;2.302;2023-03-12T17:52:35;13.50;99.90
59847;DHT22;45728;48.788;2.302;2023-03-12T17:55:01;13.40;99.90
59847;DHT22;45728;48.788;2.302;2023-03-12T17:57:28;13.40;99.90
59847;DHT22;45728;48.788;2.302;2023-03-12T17:59:54;13.40;99.90
59847;DHT22;45728;48.788;2.302;2023-03-12T18:02:21;13.40;99.90
59847;DHT22;45728;48.788;2.302;2023-03-12T18:04:47;13.30;99.90
59847;DHT22;45728;48.788;2.302;2023-03-12T18:07:13;13.30;99.90